VDSR

Siem Reap International Airport

Siem Reap, Cambodia
TAF VDSR 251700Z 2518/2612 14005KT 9999 SCT017 SCT040
Issued Valid From Valid To
Apr-25 @ 17:00 UTC
(58 minutes ago)
Apr-25 @ 18:00 UTC
(in 2 minutes)
Apr-26 @ 12:00 UTC
(in 18 hours)
Apr-25 @ 18:00 to Apr-26 @ 12:00
TAF VDSR 251700Z 2518/2612 14005KT 9999 SCT017 SCT040
Wind Visibility Clouds
140° at 5 knots 10,000+ meters
  • Scattered at 1,700' AGL
  • Scattered at 4,000' AGL
TAF VDSR 251700Z 2518/2612 14005KT 9999 SCT017 SCT040
Issued Apr-25 @ 17:00 UTC
(58 minutes ago)
Valid From Apr-25 @ 18:00 UTC
(in 2 minutes)
Valid To Apr-26 @ 12:00 UTC
(in 18 hours)
Apr-25 @ 18:00 - Apr-26 @ 12:00
Wind Visibility
140° at 5 knots 10,000+ meters
Clouds
  • Scattered at 1,700' AGL
  • Scattered at 4,000' AGL